Aviation Digital Data Service (ADDS)

Output produced by TAFs form (0032 UTC 21 October 2014)
found at http://www.aviationweather.gov/adds/tafs/
 
KSBY 202337Z 2100/2124 19003KT P6SM SCT150 BKN250 
     FM210800 20003KT P6SM BKN100 OVC200 
     FM211300 23005KT P6SM SCT060 BKN120 
     FM211800 25007KT P6SM BKN060